Time;durP1;ratioP1;P1;durP2;ratioP2;P2;SDS_P1;SDS_P2;PMS_P1;PMS_P2;Temp;Humidity;BMP_temperature;BMP_pressure;BME280_temperature;BME280_humidity;BME280_pressure;Samples;Min_cycle;Max_cycle;Signal;HPM_P1;HPM_P2
2022/04/08 00:00:45;;;;;;;5.82;1.40;;;;;;;8.11;52.16;98913.78;5048005;28;20458;-70
2022/04/08 00:03:11;;;;;;;4.20;1.20;;;;;;;8.08;52.17;98910.50;5046333;28;20517;-71
2022/04/08 00:05:36;;;;;;;5.40;1.38;;;;;;;8.07;52.57;98918.56;5047401;28;20056;-71
2022/04/08 00:08:01;;;;;;;5.35;1.67;;;;;;;8.08;52.73;98915.78;5047663;28;20084;-71
2022/04/08 00:10:27;;;;;;;4.18;1.27;;;;;;;8.07;53.23;98913.31;5045800;28;20383;-71
2022/04/08 00:12:52;;;;;;;5.47;1.17;;;;;;;8.05;53.58;98913.47;5047002;28;20063;-71
2022/04/08 00:15:17;;;;;;;4.32;1.33;;;;;;;8.05;53.70;98915.28;5047564;28;20046;-71
2022/04/08 00:17:43;;;;;;;4.30;1.17;;;;;;;8.05;54.27;98921.38;5046748;28;20033;-71
2022/04/08 00:20:08;;;;;;;6.95;1.50;;;;;;;8.07;54.07;98921.19;5046115;28;20029;-71
2022/04/08 00:22:40;;;;;;;4.88;1.23;;;;;;;8.10;54.48;98926.09;5046176;28;20040;-71
2022/04/08 00:25:06;;;;;;;4.47;1.65;;;;;;;8.09;54.84;98916.59;5046228;28;20067;-71
2022/04/08 00:27:31;;;;;;;4.60;1.60;;;;;;;8.09;54.65;98922.66;5045602;28;20033;-71
2022/04/08 00:29:56;;;;;;;5.68;1.60;;;;;;;8.05;54.65;98910.84;5047096;28;20061;-70
2022/04/08 00:32:24;;;;;;;3.63;1.48;;;;;;;8.08;54.77;98921.03;5047005;28;20363;-71
2022/04/08 00:34:49;;;;;;;4.60;1.50;;;;;;;8.05;55.17;98939.78;5046444;28;20576;-71
2022/04/08 00:37:14;;;;;;;3.75;1.10;;;;;;;8.07;55.02;98945.69;5048967;28;20041;-70
2022/04/08 00:39:40;;;;;;;3.85;1.08;;;;;;;8.04;55.11;98948.69;5049645;28;20334;-70
2022/04/08 00:42:06;;;;;;;3.25;1.05;;;;;;;8.04;55.13;98946.06;5046912;28;20033;-71
2022/04/08 00:44:32;;;;;;;7.28;1.55;;;;;;;7.99;55.56;98947.59;5046080;28;20128;-70
2022/04/08 00:46:57;;;;;;;5.45;1.67;;;;;;;8.00;55.18;98965.81;5046362;28;20408;-70
2022/04/08 00:49:22;;;;;;;3.03;1.10;;;;;;;7.99;55.24;98953.66;5046001;28;20037;-70
2022/04/08 00:51:47;;;;;;;3.33;1.13;;;;;;;7.97;55.14;98968.81;5049814;28;20524;-70
2022/04/08 00:54:13;;;;;;;4.38;1.20;;;;;;;7.98;55.08;98974.88;5043938;28;20502;-70
2022/04/08 00:56:39;;;;;;;5.57;1.23;;;;;;;7.95;55.46;98965.53;5047994;28;20075;-70
2022/04/08 00:59:04;;;;;;;4.10;1.30;;;;;;;7.93;55.51;98974.59;5043143;28;20025;-70
2022/04/08 01:01:31;;;;;;;5.18;1.70;;;;;;;7.87;55.59;98982.19;5046491;28;20035;-71
2022/04/08 01:03:57;;;;;;;4.38;1.35;;;;;;;7.87;55.45;98982.19;5046526;28;20515;-70
2022/04/08 01:06:24;;;;;;;6.28;1.58;;;;;;;7.78;56.15;98991.09;5044746;28;20048;-70
2022/04/08 01:08:52;;;;;;;6.45;1.50;;;;;;;7.78;55.87;98980.59;5055435;28;20041;-70
2022/04/08 01:11:17;;;;;;;4.45;1.30;;;;;;;7.79;55.96;98994.56;5050591;28;20048;-70
2022/04/08 01:13:43;;;;;;;5.03;1.20;;;;;;;7.74;56.29;98991.63;5048709;28;20032;-70
2022/04/08 01:16:09;;;;;;;5.85;1.48;;;;;;;7.71;56.54;99005.13;5049174;28;20029;-71
2022/04/08 01:18:35;;;;;;;3.80;1.17;;;;;;;7.68;56.65;99002.84;5047964;28;20041;-70
2022/04/08 01:21:07;;;;;;;6.13;1.27;;;;;;;7.66;56.60;99011.72;5048635;28;20086;-71
2022/04/08 01:23:34;;;;;;;4.95;1.35;;;;;;;7.64;56.75;99012.88;5048713;28;20033;-70
2022/04/08 01:26:03;;;;;;;5.55;1.40;;;;;;;7.63;56.39;99013.88;5049742;28;20086;-70
2022/04/08 01:28:29;;;;;;;6.07;1.10;;;;;;;7.60;56.61;99022.09;5049629;28;20475;-71
2022/04/08 01:30:55;;;;;;;7.68;1.40;;;;;;;7.56;56.99;99031.31;5049173;28;20041;-70
2022/04/08 01:33:20;;;;;;;4.50;1.20;;;;;;;7.51;56.91;99033.63;5049674;28;20044;-72
2022/04/08 01:35:45;;;;;;;3.83;1.13;;;;;;;7.47;57.03;99042.84;5047881;28;20480;-73
2022/04/08 01:38:11;;;;;;;3.85;1.13;;;;;;;7.48;56.86;99032.16;5048997;28;20112;-72
2022/04/08 01:40:36;;;;;;;2.67;0.95;;;;;;;7.48;57.02;99042.66;5048941;28;20037;-72
2022/04/08 01:43:01;;;;;;;4.25;1.30;;;;;;;7.48;57.21;99045.28;5049631;28;20036;-71
2022/04/08 01:45:27;;;;;;;5.68;1.42;;;;;;;7.46;57.17;99052.56;5049653;28;20037;-70
2022/04/08 01:47:52;;;;;;;3.00;1.02;;;;;;;7.45;57.32;99053.53;5030549;28;20037;-72
2022/04/08 01:50:20;;;;;;;2.70;1.10;;;;;;;7.42;57.46;99056.50;5048723;28;20040;-72
2022/04/08 01:52:46;;;;;;;4.80;1.20;;;;;;;7.41;57.72;99053.06;5048557;28;20051;-72
2022/04/08 01:55:11;;;;;;;3.53;1.35;;;;;;;7.35;57.84;99058.97;5051325;28;20048;-72
2022/04/08 01:57:37;;;;;;;4.70;1.30;;;;;;;7.32;58.24;99067.22;5050501;28;20033;-73
2022/04/08 02:00:04;;;;;;;4.50;1.20;;;;;;;7.32;58.03;99071.66;5049452;28;20072;-72
2022/04/08 02:02:29;;;;;;;6.25;1.15;;;;;;;7.31;58.37;99076.06;5047226;28;20033;-72
2022/04/08 02:04:55;;;;;;;3.58;1.30;;;;;;;7.28;58.72;99076.41;5030210;28;20497;-72
2022/04/08 02:07:20;;;;;;;4.40;1.50;;;;;;;7.28;58.64;99078.22;5049132;28;20222;-72
2022/04/08 02:09:45;;;;;;;4.15;1.48;;;;;;;7.28;58.84;99081.66;5048449;28;20041;-73
2022/04/08 02:12:11;;;;;;;3.72;1.20;;;;;;;7.26;58.86;99088.06;5049026;28;20033;-73
2022/04/08 02:14:36;;;;;;;3.70;1.33;;;;;;;7.24;59.06;99080.34;5028221;28;20529;-72
2022/04/08 02:17:02;;;;;;;3.53;1.20;;;;;;;7.20;59.57;99092.19;5030855;28;20116;-73
2022/04/08 02:19:27;;;;;;;5.97;1.30;;;;;;;7.19;59.31;99086.09;5049347;28;20037;-72
2022/04/08 02:21:53;;;;;;;3.85;1.30;;;;;;;7.17;59.75;99097.75;5047337;28;20029;-72
2022/04/08 02:24:18;;;;;;;6.40;1.35;;;;;;;7.19;59.86;99093.97;5047555;28;20037;-72
2022/04/08 02:26:44;;;;;;;5.47;1.83;;;;;;;7.26;59.84;99101.22;5029694;28;20400;-72
2022/04/08 02:29:10;;;;;;;4.53;1.38;;;;;;;7.36;59.59;99104.50;5031156;28;20025;-73
2022/04/08 02:31:36;;;;;;;4.47;1.52;;;;;;;7.37;59.75;99116.66;5048169;28;20435;-73
2022/04/08 02:34:01;;;;;;;5.82;1.88;;;;;;;7.36;59.35;99120.28;5046170;28;20048;-72
2022/04/08 02:36:26;;;;;;;3.72;1.33;;;;;;;7.35;59.57;99110.75;5052798;28;20037;-72
2022/04/08 02:38:51;;;;;;;3.20;1.08;;;;;;;7.33;59.52;99116.16;5047130;28;20033;-72
2022/04/08 02:41:17;;;;;;;3.78;1.35;;;;;;;7.30;59.70;99118.31;5049816;28;20041;-72
2022/04/08 02:43:42;;;;;;;5.68;1.65;;;;;;;7.22;59.96;99119.13;5048950;28;20080;-73
2022/04/08 02:46:07;;;;;;;4.78;1.42;;;;;;;7.19;60.40;99116.84;5049693;28;20044;-72
2022/04/08 02:48:33;;;;;;;5.10;1.45;;;;;;;7.18;60.26;99112.56;5054892;28;20561;-72
2022/04/08 02:50:58;;;;;;;8.55;1.73;;;;;;;7.13;60.62;99114.88;5050783;28;20042;-72
2022/04/08 02:53:23;;;;;;;10.55;1.70;;;;;;;7.15;60.33;99115.50;5047814;28;20085;-72
2022/04/08 02:55:49;;;;;;;5.93;1.52;;;;;;;7.15;60.36;99120.75;5046681;28;20119;-72
2022/04/08 02:58:14;;;;;;;5.18;1.30;;;;;;;7.16;60.35;99117.16;5029020;28;20158;-73
2022/04/08 03:00:40;;;;;;;5.88;1.35;;;;;;;7.14;60.70;99127.03;5052280;28;20506;-72
2022/04/08 03:03:05;;;;;;;5.70;1.50;;;;;;;7.15;60.81;99129.50;5046375;28;20029;-72
2022/04/08 03:05:31;;;;;;;6.05;1.70;;;;;;;7.15;60.52;99133.91;5049229;28;20037;-72
2022/04/08 03:07:56;;;;;;;4.57;1.27;;;;;;;7.17;60.73;99131.94;5046767;28;20486;-73
2022/04/08 03:10:21;;;;;;;6.95;1.95;;;;;;;7.15;60.82;99134.75;5047798;28;20078;-72
2022/04/08 03:12:46;;;;;;;3.42;1.40;;;;;;;7.10;61.12;99134.41;5028658;28;20033;-73
2022/04/08 03:15:12;;;;;;;6.05;1.73;;;;;;;7.06;61.47;99140.19;5046424;28;20041;-72
2022/04/08 03:17:37;;;;;;;7.03;1.70;;;;;;;7.04;61.32;99142.13;5047037;28;20526;-71
2022/04/08 03:20:04;;;;;;;2.90;1.10;;;;;;;7.04;61.28;99155.28;5047185;28;20049;-72
2022/04/08 03:22:29;;;;;;;3.63;1.20;;;;;;;6.97;61.43;99153.28;5045723;28;20409;-72
2022/04/08 03:24:54;;;;;;;4.65;1.27;;;;;;;6.96;61.95;99149.03;5046559;28;20041;-72
2022/04/08 03:27:20;;;;;;;7.68;1.50;;;;;;;6.94;61.85;99155.44;5046187;28;20029;-72
2022/04/08 03:29:45;;;;;;;5.45;1.65;;;;;;;6.97;62.01;99155.09;5046140;28;20028;-72
2022/04/08 03:32:11;;;;;;;5.38;2.03;;;;;;;6.94;62.24;99153.63;5045060;28;20040;-73
2022/04/08 03:34:37;;;;;;;3.97;1.23;;;;;;;6.93;62.21;99151.97;5047120;28;20040;-73
2022/04/08 03:37:04;;;;;;;4.57;1.48;;;;;;;6.91;62.52;99155.75;5046959;28;20038;-73
2022/04/08 03:39:29;;;;;;;6.00;1.17;;;;;;;6.89;62.92;99155.91;5047134;28;20053;-72
2022/04/08 03:41:55;;;;;;;4.70;1.30;;;;;;;6.87;62.68;99152.63;5046519;28;20575;-72
2022/04/08 03:44:20;;;;;;;5.72;1.70;;;;;;;6.83;62.87;99145.22;5047251;28;20044;-73
2022/04/08 03:46:46;;;;;;;6.13;1.42;;;;;;;6.81;62.94;99154.06;5046341;28;20114;-72
2022/04/08 03:49:15;;;;;;;6.55;1.67;;;;;;;6.80;63.11;99156.88;5046534;28;20025;-73
2022/04/08 03:51:44;;;;;;;7.05;1.55;;;;;;;6.80;63.31;99146.38;5052721;28;20512;-73
2022/04/08 03:54:10;;;;;;;7.00;1.63;;;;;;;6.81;63.31;99148.00;5047581;28;20067;-72
2022/04/08 03:56:36;;;;;;;4.97;1.45;;;;;;;6.81;63.58;99151.44;5048587;28;20072;-70
2022/04/08 03:59:01;;;;;;;5.68;1.38;;;;;;;6.83;63.48;99153.91;5045871;28;20040;-70
2022/04/08 04:01:27;;;;;;;5.25;1.40;;;;;;;6.85;63.26;99149.34;5045879;28;20040;-70
2022/04/08 04:03:52;;;;;;;6.25;1.60;;;;;;;6.86;63.52;99148.34;5047806;28;20140;-70
2022/04/08 04:06:18;;;;;;;9.75;1.90;;;;;;;6.90;63.57;99151.47;5048537;28;20409;-70
2022/04/08 04:08:44;;;;;;;7.65;1.45;;;;;;;6.94;63.58;99153.63;5048113;28;20032;-70
2022/04/08 04:11:14;;;;;;;4.78;1.55;;;;;;;6.97;63.40;99155.09;5048346;28;20032;-70
2022/04/08 04:13:40;;;;;;;4.67;1.27;;;;;;;6.95;63.25;99150.00;5048894;28;20407;-70
2022/04/08 04:16:06;;;;;;;4.03;1.38;;;;;;;6.94;63.56;99158.88;5048026;28;20549;-71
2022/04/08 04:18:31;;;;;;;4.38;1.30;;;;;;;6.95;63.82;99151.81;5049105;28;20192;-70
2022/04/08 04:20:56;;;;;;;5.25;1.27;;;;;;;6.94;63.74;99153.63;5047662;28;20033;-70
2022/04/08 04:23:22;;;;;;;5.05;1.20;;;;;;;6.92;63.87;99152.97;5046427;28;20032;-70
2022/04/08 04:25:47;;;;;;;4.38;1.30;;;;;;;6.92;63.80;99152.13;5047930;28;20073;-70
2022/04/08 04:28:13;;;;;;;4.32;1.25;;;;;;;6.90;64.10;99152.28;5030236;28;20087;-70
2022/04/08 04:30:38;;;;;;;3.35;1.13;;;;;;;6.90;63.99;99154.91;5046850;28;20028;-70
2022/04/08 04:33:07;;;;;;;4.38;1.20;;;;;;;6.90;64.22;99159.38;5044714;28;20037;-70
2022/04/08 04:35:33;;;;;;;5.28;1.17;;;;;;;6.93;64.06;99166.91;5044744;28;20036;-70
2022/04/08 04:37:59;;;;;;;6.25;1.50;;;;;;;6.90;64.40;99165.44;5046685;28;20041;-70
2022/04/08 04:40:25;;;;;;;5.53;1.40;;;;;;;6.92;64.26;99160.84;5046764;28;20473;-70
2022/04/08 04:42:51;;;;;;;2.65;1.00;;;;;;;6.91;64.46;99167.09;5046205;28;20555;-70
2022/04/08 04:45:17;;;;;;;3.70;1.13;;;;;;;6.91;64.50;99164.47;5052677;28;20143;-70
2022/04/08 04:47:42;;;;;;;5.85;1.35;;;;;;;6.90;64.55;99165.44;5055160;28;20061;-70
2022/04/08 04:50:08;;;;;;;4.45;1.30;;;;;;;6.93;64.48;99167.72;5050998;28;20125;-70
2022/04/08 04:52:33;;;;;;;3.33;1.52;;;;;;;6.95;64.46;99170.22;5057084;28;20028;-70
2022/04/08 04:54:59;;;;;;;7.50;1.55;;;;;;;6.96;64.77;99171.84;5055334;28;20040;-70
2022/04/08 04:57:24;;;;;;;4.93;1.52;;;;;;;6.96;64.94;99172.69;5055785;28;20085;-70
2022/04/08 04:59:50;;;;;;;4.88;1.60;;;;;;;6.98;65.22;99177.75;5036831;28;20040;-70
2022/04/08 05:02:15;;;;;;;5.75;1.70;;;;;;;7.00;64.92;99170.53;5054602;28;20039;-70
2022/04/08 05:04:40;;;;;;;5.45;1.48;;;;;;;7.03;65.10;99167.56;5056309;28;20043;-70
2022/04/08 05:07:06;;;;;;;4.10;1.40;;;;;;;7.06;65.25;99184.84;5053717;28;20467;-70
2022/04/08 05:09:32;;;;;;;4.43;1.25;;;;;;;7.07;65.13;99182.03;5018413;28;20203;-70
2022/04/08 05:11:57;;;;;;;5.43;1.50;;;;;;;7.08;65.20;99181.06;5051600;28;20120;-70
2022/04/08 05:14:24;;;;;;;3.85;1.40;;;;;;;7.09;65.32;99176.63;5051834;28;20112;-70
2022/04/08 05:16:50;;;;;;;5.07;1.42;;;;;;;7.11;65.16;99169.41;5051775;28;20082;-70
2022/04/08 05:19:16;;;;;;;6.80;1.58;;;;;;;7.15;65.39;99181.22;5051823;28;20533;-70
2022/04/08 05:21:41;;;;;;;4.82;1.50;;;;;;;7.20;65.44;99179.78;5054544;28;20057;-70
2022/04/08 05:24:07;;;;;;;5.15;1.58;;;;;;;7.23;65.41;99168.91;5052075;28;20099;-70
2022/04/08 05:26:32;;;;;;;8.30;1.98;;;;;;;7.28;65.57;99171.06;5053630;28;20048;-72
2022/04/08 05:28:57;;;;;;;5.05;1.52;;;;;;;7.34;65.37;99172.19;5047402;28;20375;-70
2022/04/08 05:31:23;;;;;;;7.15;2.15;;;;;;;7.33;65.79;99174.00;5053261;28;20286;-70
2022/04/08 05:33:48;;;;;;;5.25;1.63;;;;;;;7.38;65.60;99170.91;5052079;28;20108;-70
2022/04/08 05:36:13;;;;;;;4.90;1.58;;;;;;;7.43;65.51;99172.03;5050520;28;20106;-70
2022/04/08 05:38:39;;;;;;;6.78;1.83;;;;;;;7.51;65.40;99180.91;5052864;28;20236;-70
2022/04/08 05:41:04;;;;;;;5.82;1.67;;;;;;;7.58;65.23;99169.59;5052381;28;20403;-70
2022/04/08 05:43:29;;;;;;;4.72;1.67;;;;;;;7.66;65.25;99174.00;5052982;28;20048;-70
2022/04/08 05:45:55;;;;;;;5.65;1.88;;;;;;;7.69;65.07;99172.84;5051525;28;20398;-69
2022/04/08 05:48:20;;;;;;;6.53;2.25;;;;;;;7.72;65.23;99178.59;5055628;28;20116;-73
2022/04/08 05:50:46;;;;;;;6.93;1.73;;;;;;;7.76;65.15;99172.00;5053560;28;20029;-69
2022/04/08 05:53:11;;;;;;;6.18;2.00;;;;;;;7.80;64.95;99167.25;5051264;28;20032;-70
2022/04/08 05:55:36;;;;;;;5.57;1.90;;;;;;;7.86;64.75;99164.78;5053712;28;20462;-70
2022/04/08 05:58:01;;;;;;;8.77;2.72;;;;;;;7.94;64.96;99165.75;5048507;28;20477;-69
2022/04/08 06:00:29;;;;;;;8.60;1.70;;;;;;;8.00;64.70;99163.25;5050492;28;20394;-70
2022/04/08 06:02:56;;;;;;;9.07;2.20;;;;;;;8.06;64.59;99164.41;5049505;28;20590;-69
2022/04/08 06:05:22;;;;;;;7.75;1.92;;;;;;;8.06;64.84;99157.31;5048684;28;20449;-70
2022/04/08 06:07:49;;;;;;;11.88;2.17;;;;;;;8.06;64.88;99159.94;5049190;28;20037;-72
2022/04/08 06:10:18;;;;;;;5.68;1.85;;;;;;;8.09;64.70;99166.69;5048537;28;20037;-70
2022/04/08 06:12:46;;;;;;;6.18;1.50;;;;;;;8.11;64.63;99163.91;5050025;28;20032;-69
2022/04/08 06:15:11;;;;;;;7.10;1.90;;;;;;;8.12;64.68;99166.34;5049451;28;20098;-69
2022/04/08 06:17:37;;;;;;;6.97;1.75;;;;;;;8.13;64.53;99162.72;5050843;28;20481;-69
2022/04/08 06:20:07;;;;;;;5.57;1.83;;;;;;;8.13;64.90;99157.47;5032463;28;20033;-70
2022/04/08 06:22:33;;;;;;;5.82;1.80;;;;;;;8.14;64.76;99161.72;5049903;28;20037;-70
2022/04/08 06:24:58;;;;;;;6.80;1.90;;;;;;;8.12;64.91;99155.81;5047196;28;20460;-69
2022/04/08 06:27:24;;;;;;;8.60;2.15;;;;;;;8.17;64.95;99161.38;5048009;28;20048;-70
2022/04/08 06:29:49;;;;;;;8.98;2.17;;;;;;;8.16;65.00;99161.56;5050935;28;20025;-69
2022/04/08 06:32:14;;;;;;;7.00;1.63;;;;;;;8.18;64.84;99163.03;5053447;28;20029;-70
2022/04/08 06:34:40;;;;;;;4.07;1.80;;;;;;;8.15;65.37;99152.84;5045910;28;20514;-69
2022/04/08 06:37:05;;;;;;;5.57;1.63;;;;;;;8.19;65.10;99164.66;5042614;28;21003;-69
2022/04/08 06:39:31;;;;;;;5.00;1.73;;;;;;;8.23;65.02;99165.97;5045122;28;20076;-69
2022/04/08 06:41:57;;;;;;;5.55;2.00;;;;;;;8.27;65.12;99162.03;5047090;28;20125;-69
2022/04/08 06:44:22;;;;;;;7.15;2.17;;;;;;;8.35;64.91;99157.72;5046128;28;20116;-69
2022/04/08 06:46:47;;;;;;;4.78;1.40;;;;;;;8.47;64.95;99149.28;5047184;28;20604;-69
2022/04/08 06:49:13;;;;;;;5.40;1.70;;;;;;;8.57;64.50;99146.44;5048454;28;20055;-69
2022/04/08 06:51:38;;;;;;;7.50;1.70;;;;;;;8.67;64.00;99136.47;5046762;28;20029;-69
2022/04/08 06:54:03;;;;;;;5.97;1.50;;;;;;;8.87;64.08;99131.59;5046661;28;20395;-69
2022/04/08 06:56:29;;;;;;;6.03;1.45;;;;;;;9.04;64.07;99124.41;5047956;28;20036;-70
2022/04/08 06:58:54;;;;;;;9.40;1.70;;;;;;;9.14;63.13;99116.25;5051953;28;20119;-69
2022/04/08 07:01:19;;;;;;;8.00;1.83;;;;;;;9.24;63.13;99108.91;5045849;28;20093;-70
2022/04/08 07:03:45;;;;;;;5.95;1.48;;;;;;;9.33;62.96;99096.47;5044047;28;20037;-70
2022/04/08 07:06:10;;;;;;;4.78;1.50;;;;;;;9.45;62.92;99096.84;5045740;28;20415;-70
2022/04/08 07:08:35;;;;;;;7.20;1.80;;;;;;;9.42;62.38;99098.03;5027752;28;20056;-69
2022/04/08 07:11:01;;;;;;;6.53;1.60;;;;;;;9.39;62.22;99098.41;5044246;28;20460;-70
2022/04/08 07:13:26;;;;;;;9.40;2.08;;;;;;;9.29;62.30;99103.09;5044989;28;20429;-69
2022/04/08 07:15:51;;;;;;;5.00;1.88;;;;;;;9.31;62.42;99095.81;5046793;28;20079;-70
2022/04/08 07:18:17;;;;;;;6.53;1.48;;;;;;;9.33;61.94;99104.38;5044967;28;20033;-69
2022/04/08 07:20:42;;;;;;;9.20;2.20;;;;;;;9.35;61.95;99102.38;5045940;28;20060;-70
2022/04/08 07:23:07;;;;;;;4.03;1.20;;;;;;;9.39;62.03;99089.66;5045005;28;20044;-72
2022/04/08 07:25:33;;;;;;;8.38;1.98;;;;;;;9.41;62.21;99082.38;5045387;28;20036;-69
2022/04/08 07:28:01;;;;;;;4.32;1.60;;;;;;;9.45;62.13;99078.38;5046550;28;20025;-69
2022/04/08 07:30:27;;;;;;;6.05;1.85;;;;;;;9.47;62.07;99085.13;5027289;28;20120;-69
2022/04/08 07:32:54;;;;;;;4.05;1.40;;;;;;;9.49;62.23;99071.75;5041112;28;20060;-69
2022/04/08 07:35:21;;;;;;;8.50;1.75;;;;;;;9.49;62.21;99069.94;5045119;28;20048;-71
2022/04/08 07:37:46;;;;;;;7.13;1.70;;;;;;;9.55;62.03;99076.28;5047296;28;20036;-69
2022/04/08 07:40:13;;;;;;;11.57;1.95;;;;;;;9.56;62.08;99073.50;5044909;28;20033;-69
2022/04/08 07:42:39;;;;;;;7.45;2.55;;;;;;;9.59;61.98;99068.84;5051719;23;20044;-87
2022/04/08 07:45:06;;;;;;;10.80;2.05;;;;;;;9.67;61.85;99068.75;5035201;28;20029;-86
2022/04/08 07:47:32;;;;;;;7.63;2.17;;;;;;;9.66;61.83;99075.03;5033651;28;20115;-89
2022/04/08 07:50:05;;;;;;;6.63;1.80;;;;;;;9.61;61.67;99067.66;5034352;28;20054;-89
2022/04/08 07:52:31;;;;;;;8.68;2.03;;;;;;;9.52;61.68;99064.28;5032534;28;20523;-87
2022/04/08 07:54:56;;;;;;;5.25;1.63;;;;;;;9.45;62.17;99063.38;5035360;28;20043;-89
2022/04/08 07:57:22;;;;;;;6.13;1.50;;;;;;;9.45;62.05;99057.28;5037183;28;20044;-88
2022/04/08 07:59:48;;;;;;;7.75;2.20;;;;;;;9.46;62.51;99051.84;5048508;28;20037;-88
2022/04/08 08:02:15;;;;;;;5.68;1.50;;;;;;;9.42;62.36;99047.91;5028482;28;20555;-89
2022/04/08 08:04:40;;;;;;;7.10;1.80;;;;;;;9.40;62.30;99041.19;5034136;28;20040;-89
2022/04/08 08:07:06;;;;;;;7.85;2.33;;;;;;;9.40;62.36;99042.00;5034230;28;20036;-90
2022/04/08 08:09:33;;;;;;;5.28;1.58;;;;;;;9.36;62.41;99038.88;5051955;28;20033;-90
2022/04/08 08:11:59;;;;;;;5.03;1.45;;;;;;;9.42;62.64;99039.19;5035120;28;20025;-89
2022/04/08 08:14:24;;;;;;;5.72;1.67;;;;;;;9.42;62.66;99039.19;5046003;28;20399;-88
2022/04/08 08:16:50;;;;;;;8.25;1.70;;;;;;;9.41;62.54;99034.88;5032987;28;20029;-89
2022/04/08 08:19:16;;;;;;;8.35;1.50;;;;;;;9.44;62.47;99031.88;5037622;28;20071;-89
2022/04/08 08:21:43;;;;;;;5.13;1.58;;;;;;;9.50;62.83;99034.63;5036179;28;20029;-89
2022/04/08 08:24:08;;;;;;;7.22;2.00;;;;;;;9.48;62.57;99033.16;5035851;28;20029;-89
2022/04/08 08:26:34;;;;;;;4.78;1.42;;;;;;;9.47;62.48;99035.00;5036662;28;20029;-88
2022/04/08 08:28:59;;;;;;;5.13;1.70;;;;;;;9.50;62.76;99031.16;5038858;28;20033;-89
2022/04/08 08:31:25;;;;;;;6.70;1.77;;;;;;;9.49;62.44;99022.44;5053395;28;20036;-88
2022/04/08 08:33:50;;;;;;;5.32;1.50;;;;;;;9.46;62.55;99027.25;5037531;28;20029;-89
2022/04/08 08:36:16;;;;;;;5.20;1.92;;;;;;;9.51;62.53;99023.09;5034395;28;20040;-89
2022/04/08 08:38:42;;;;;;;8.20;2.25;;;;;;;9.56;62.60;99018.06;5050778;28;20137;-88
2022/04/08 08:41:09;;;;;;;5.95;1.80;;;;;;;9.62;62.19;99013.88;5033677;28;20029;-88
2022/04/08 08:43:35;;;;;;;6.32;2.08;;;;;;;9.68;62.40;99015.78;5051674;28;20083;-88
2022/04/08 08:46:03;;;;;;;6.50;1.88;;;;;;;9.71;62.16;99010.13;5037825;28;20039;-89
2022/04/08 08:48:33;;;;;;;5.60;1.40;;;;;;;9.78;62.29;99010.22;5034903;28;20033;-88
2022/04/08 08:51:02;;;;;;;6.72;1.65;;;;;;;9.81;62.03;99004.56;5033290;28;20026;-88
2022/04/08 08:53:30;;;;;;;5.22;1.55;;;;;;;9.89;61.96;99004.50;5051978;28;20033;-89
2022/04/08 08:55:56;;;;;;;5.25;1.90;;;;;;;10.00;62.09;98997.91;5037415;28;20039;-89
2022/04/08 08:58:21;;;;;;;5.50;1.92;;;;;;;10.08;61.70;99000.44;5021837;28;20045;-89
2022/04/08 09:00:50;;;;;;;4.43;1.48;;;;;;;10.14;61.74;99002.31;5032540;28;20562;-89
2022/04/08 09:03:16;;;;;;;4.75;1.45;;;;;;;10.17;61.92;98988.75;5050802;28;20124;-88
2022/04/08 09:05:44;;;;;;;6.03;2.08;;;;;;;10.00;62.74;98995.25;5052652;28;20096;-88
2022/04/08 09:08:11;;;;;;;6.50;1.80;;;;;;;9.66;64.20;98993.22;5032259;28;20036;-88
2022/04/08 09:10:42;;;;;;;11.18;2.15;;;;;;;9.54;65.02;98990.22;5050623;28;20049;-88
2022/04/08 09:13:09;;;;;;;10.15;2.20;;;;;;;9.20;65.95;98982.84;5035525;28;20029;-88
2022/04/08 09:15:39;;;;;;;7.20;1.92;;;;;;;8.98;66.52;98980.09;5033044;28;20033;-88
2022/04/08 09:18:14;;;;;;;6.13;1.73;;;;;;;8.93;67.32;98977.97;5047872;28;20061;-88
2022/04/08 09:20:44;;;;;;;10.68;1.90;;;;;;;8.80;68.03;98977.78;5050370;28;20052;-88
2022/04/08 09:23:12;;;;;;;4.85;1.52;;;;;;;8.56;69.76;98975.38;5036110;28;20082;-88
2022/04/08 09:25:39;;;;;;;15.43;1.90;;;;;;;8.33;71.49;98978.78;5033844;28;20049;-88
2022/04/08 09:28:09;;;;;;;5.40;1.55;;;;;;;8.15;72.28;98979.09;5032767;28;20040;-88
2022/04/08 09:30:35;;;;;;;5.80;1.83;;;;;;;7.93;73.87;98975.41;5037310;28;20055;-89
2022/04/08 09:33:16;;;;;;;6.82;1.63;;;;;;;7.88;73.47;98970.66;5037990;28;20083;-89
2022/04/08 09:35:42;;;;;;;5.10;1.20;;;;;;;7.81;74.12;98979.41;5032845;28;20136;-90
2022/04/08 09:38:08;;;;;;;6.18;1.50;;;;;;;7.71;75.25;98970.91;5040754;28;20055;-90
2022/04/08 09:40:44;;;;;;;6.40;1.50;;;;;;;7.69;75.07;98965.81;5037947;28;20545;-90
2022/04/08 09:43:12;;;;;;;4.60;1.27;;;;;;;7.69;76.08;98959.75;5053508;28;20032;-90
2022/04/08 09:45:38;;;;;;;3.72;1.50;;;;;;;7.55;76.77;98953.38;5055067;28;20071;-90
2022/04/08 09:48:05;;;;;;;7.75;1.55;;;;;;;7.50;77.31;98942.56;5054693;28;20037;-90
2022/04/08 09:50:31;;;;;;;9.15;1.98;;;;;;;7.48;79.28;98936.66;5042242;28;20033;-90
2022/04/08 09:52:57;;;;;;;3.90;1.55;;;;;;;7.35;80.59;98924.88;5036526;28;20396;-90
2022/04/08 09:55:25;;;;;;;9.70;1.92;;;;;;;7.34;80.96;98925.03;5038986;28;20036;-90
2022/04/08 09:58:00;;;;;;;6.00;1.88;;;;;;;7.31;80.78;98913.03;5037241;28;20045;-90
2022/04/08 10:00:28;;;;;;;8.02;2.28;;;;;;;7.14;81.75;98908.84;5043362;28;20044;-91
2022/04/08 10:02:55;;;;;;;4.78;1.40;;;;;;;7.13;81.44;98912.47;5037427;28;20057;-90
2022/04/08 10:05:22;;;;;;;6.85;1.75;;;;;;;7.07;82.85;98908.69;5054889;28;21486;-90
2022/04/08 10:07:53;;;;;;;8.13;1.75;;;;;;;6.89;84.46;98902.81;5039412;28;20118;-89
2022/04/08 10:10:40;;;;;;;5.28;2.50;;;;;;;6.89;84.29;98898.41;5035314;28;20037;-89
2022/04/08 10:13:24;;;;;;;6.60;1.88;;;;;;;6.92;84.43;98897.25;5034867;28;20174;-89
2022/04/08 10:16:01;;;;;;;5.30;1.70;;;;;;;6.96;83.89;98885.41;5050028;28;20535;-88
2022/04/08 10:18:38;;;;;;;6.32;1.90;;;;;;;6.93;84.49;98877.88;5055369;28;20053;-88
2022/04/08 10:21:03;;;;;;;6.65;1.60;;;;;;;6.95;84.38;98868.00;5038804;28;20040;-90
2022/04/08 10:23:36;;;;;;;5.57;1.90;;;;;;;6.91;84.18;98869.31;5037551;28;20045;-89
2022/04/08 10:26:04;;;;;;;5.95;1.80;;;;;;;6.77;85.42;98869.06;5044261;28;20037;-89
2022/04/08 10:28:36;;;;;;;6.30;1.58;;;;;;;6.76;85.37;98867.41;5050401;28;20041;-89
2022/04/08 10:31:13;;;;;;;5.85;2.05;;;;;;;6.82;84.68;98858.03;5035046;28;20280;-88
2022/04/08 10:33:46;;;;;;;6.10;1.50;;;;;;;6.80;84.92;98858.19;5052114;28;20033;-90
2022/04/08 10:36:13;;;;;;;5.38;1.77;;;;;;;6.74;85.46;98844.91;5059185;28;20072;-90
2022/04/08 10:38:41;;;;;;;7.07;1.88;;;;;;;6.70;85.47;98835.75;5037268;28;20563;-89
2022/04/08 10:41:09;;;;;;;3.33;1.48;;;;;;;6.68;85.29;98819.34;5032212;28;20033;-88
2022/04/08 10:43:52;;;;;;;7.63;1.83;;;;;;;6.68;85.39;98824.59;5038093;28;20120;-89
2022/04/08 10:46:29;;;;;;;10.90;1.83;;;;;;;6.68;84.95;98828.03;5037240;28;20079;-88
2022/04/08 10:48:58;;;;;;;5.72;1.75;;;;;;;6.65;86.00;98833.63;5019695;28;20099;-87
2022/04/08 10:51:29;;;;;;;4.28;1.58;;;;;;;6.65;85.52;98828.38;5045016;28;20040;-87
2022/04/08 10:54:02;;;;;;;6.18;2.03;;;;;;;6.62;86.30;98827.88;5054557;28;20135;-88
2022/04/08 10:56:34;;;;;;;6.50;1.50;;;;;;;6.59;86.26;98832.47;5034783;28;20492;-88
2022/04/08 10:59:00;;;;;;;4.57;1.63;;;;;;;6.55;86.19;98830.34;5036538;28;20032;-87
2022/04/08 11:01:25;;;;;;;4.43;1.50;;;;;;;6.53;85.85;98827.06;5036517;28;20041;-87
2022/04/08 11:04:00;;;;;;;7.40;1.75;;;;;;;6.50;86.47;98830.84;5053996;28;20391;-88
2022/04/08 11:06:33;;;;;;;9.40;1.70;;;;;;;6.45;86.30;98825.28;5032597;28;20048;-87
2022/04/08 11:09:11;;;;;;;4.25;1.45;;;;;;;6.36;86.17;98824.50;5043158;28;20037;-87
2022/04/08 11:11:40;;;;;;;8.52;2.08;;;;;;;6.37;86.43;98814.81;5053934;28;20100;-88
2022/04/08 11:14:06;;;;;;;3.45;1.30;;;;;;;6.29;86.68;98815.66;5052585;28;20090;-89
2022/04/08 11:16:37;;;;;;;3.92;1.30;;;;;;;6.24;87.32;98819.72;5054196;28;20033;-90
2022/04/08 11:19:07;;;;;;;4.15;1.20;;;;;;;6.25;87.05;98806.47;5053486;28;20097;-89
2022/04/08 11:21:41;;;;;;;3.85;1.20;;;;;;;6.34;87.00;98805.47;5051182;28;20473;-90
2022/04/08 11:24:19;;;;;;;7.45;1.30;;;;;;;6.37;86.69;98791.19;5032738;28;20033;-89
2022/04/08 11:26:52;;;;;;;4.50;1.10;;;;;;;6.29;86.40;98794.66;5035251;28;20064;-89
2022/04/08 11:29:19;;;;;;;5.50;1.17;;;;;;;6.26;86.87;98791.53;5036671;28;20056;-89
2022/04/08 11:31:46;;;;;;;3.65;0.90;;;;;;;6.31;86.15;98789.22;5036496;28;20448;-89
2022/04/08 11:34:15;;;;;;;2.67;0.80;;;;;;;6.30;86.13;98777.91;5037826;28;20040;-90
2022/04/08 11:36:42;;;;;;;1.55;0.82;;;;;;;6.27;86.09;98774.78;5057285;28;20032;-89
2022/04/08 11:39:08;;;;;;;6.03;1.30;;;;;;;6.23;85.87;98774.31;5038425;28;20032;-89